sensor_id;sensor_type;location;lat;lon;timestamp;pressure;altitude;pressure_sealevel;temperature;humidity
54306;BME280;66145;45.188;5.712;2024-03-23T00:52:46;99127.03;;;16.40;51.91
54306;BME280;66145;45.188;5.712;2024-03-23T00:55:12;99087.56;;;16.19;52.02
54306;BME280;66145;45.188;5.712;2024-03-23T00:57:37;99135.22;;;16.40;52.07
54306;BME280;66145;45.188;5.712;2024-03-23T01:00:03;99109.19;;;16.29;52.37
54306;BME280;66145;45.188;5.712;2024-03-23T01:02:31;99115.16;;;16.31;52.01
54306;BME280;66145;45.188;5.712;2024-03-23T01:04:56;99122.25;;;16.32;52.50
54306;BME280;66145;45.188;5.712;2024-03-23T01:07:21;99129.34;;;16.33;52.28
54306;BME280;66145;45.188;5.712;2024-03-23T01:09:47;99112.25;;;16.27;52.30
54306;BME280;66145;45.188;5.712;2024-03-23T01:12:12;99105.25;;;16.21;52.27
54306;BME280;66145;45.188;5.712;2024-03-23T01:14:37;99118.72;;;16.32;52.39
54306;BME280;66145;45.188;5.712;2024-03-23T01:17:03;99117.38;;;16.29;52.26
54306;BME280;66145;45.188;5.712;2024-03-23T01:19:28;99115.81;;;16.28;52.50
54306;BME280;66145;45.188;5.712;2024-03-23T01:21:54;99131.78;;;16.35;52.29
54306;BME280;66145;45.188;5.712;2024-03-23T01:24:19;99132.78;;;16.39;52.42
54306;BME280;66145;45.188;5.712;2024-03-23T01:26:44;99128.75;;;16.36;52.21
54306;BME280;66145;45.188;5.712;2024-03-23T01:29:10;99141.78;;;16.39;52.39
54306;BME280;66145;45.188;5.712;2024-03-23T01:31:36;99126.72;;;16.28;52.41
54306;BME280;66145;45.188;5.712;2024-03-23T01:34:01;99095.84;;;16.14;52.36
54306;BME280;66145;45.188;5.712;2024-03-23T01:36:28;99140.16;;;16.38;52.30
54306;BME280;66145;45.188;5.712;2024-03-23T01:38:53;99140.16;;;16.38;52.36
54306;BME280;66145;45.188;5.712;2024-03-23T01:41:18;99134.72;;;16.38;52.29
54306;BME280;66145;45.188;5.712;2024-03-23T01:43:44;99116.59;;;16.29;52.44
54306;BME280;66145;45.188;5.712;2024-03-23T01:46:09;99142.38;;;16.36;52.57
54306;BME280;66145;45.188;5.712;2024-03-23T01:48:35;99127.72;;;16.32;52.20
54306;BME280;66145;45.188;5.712;2024-03-23T01:51:01;99120.75;;;16.26;52.47
54306;BME280;66145;45.188;5.712;2024-03-23T01:53:26;99091.88;;;16.06;52.41
54306;BME280;66145;45.188;5.712;2024-03-23T01:55:51;99141.59;;;16.36;52.48
54306;BME280;66145;45.188;5.712;2024-03-23T01:58:17;99132.88;;;16.34;52.37
54306;BME280;66145;45.188;5.712;2024-03-23T02:00:42;99120.44;;;16.27;52.49
54306;BME280;66145;45.188;5.712;2024-03-23T02:03:24;99120.44;;;16.27;52.31
54306;BME280;66145;45.188;5.712;2024-03-23T02:05:50;99134.50;;;16.35;52.39
54306;BME280;66145;45.188;5.712;2024-03-23T02:08:21;99125.56;;;16.29;52.39
54306;BME280;66145;45.188;5.712;2024-03-23T02:10:50;99123.38;;;16.31;52.43
54306;BME280;66145;45.188;5.712;2024-03-23T02:13:17;99120.03;;;16.34;52.74
54306;BME280;66145;45.188;5.712;2024-03-23T02:15:44;99125.81;;;16.33;52.31
54306;BME280;66145;45.188;5.712;2024-03-23T02:18:10;99124.47;;;16.30;52.45
54306;BME280;66145;45.188;5.712;2024-03-23T02:20:36;99109.19;;;16.29;52.55
54306;BME280;66145;45.188;5.712;2024-03-23T02:23:02;99121.66;;;16.35;52.58
54306;BME280;66145;45.188;5.712;2024-03-23T02:25:27;99125.50;;;16.34;52.37
54306;BME280;66145;45.188;5.712;2024-03-23T02:27:52;99116.69;;;16.23;52.28
54306;BME280;66145;45.188;5.712;2024-03-23T02:30:21;99133.69;;;16.34;52.47
54306;BME280;66145;45.188;5.712;2024-03-23T02:32:46;99095.34;;;16.11;52.54
54306;BME280;66145;45.188;5.712;2024-03-23T02:35:12;99131.56;;;16.31;52.62
54306;BME280;66145;45.188;5.712;2024-03-23T02:37:37;99128.09;;;16.25;52.44
54306;BME280;66145;45.188;5.712;2024-03-23T02:40:03;99112.84;;;16.24;52.55
54306;BME280;66145;45.188;5.712;2024-03-23T02:42:28;99136.41;;;16.34;52.68
54306;BME280;66145;45.188;5.712;2024-03-23T02:44:54;99118.31;;;16.24;52.41
54306;BME280;66145;45.188;5.712;2024-03-23T02:47:19;99121.16;;;16.33;52.56
54306;BME280;66145;45.188;5.712;2024-03-23T02:49:45;99129.66;;;16.32;52.35
54306;BME280;66145;45.188;5.712;2024-03-23T02:52:10;99103.44;;;16.17;52.51
54306;BME280;66145;45.188;5.712;2024-03-23T02:54:35;99114.38;;;16.31;52.39
54306;BME280;66145;45.188;5.712;2024-03-23T02:57:01;99120.94;;;16.30;52.52
54306;BME280;66145;45.188;5.712;2024-03-23T02:59:26;99114.78;;;16.24;52.30
54306;BME280;66145;45.188;5.712;2024-03-23T03:01:51;99109.59;;;16.22;52.35
54306;BME280;66145;45.188;5.712;2024-03-23T03:04:17;99129.94;;;16.30;52.37
54306;BME280;66145;45.188;5.712;2024-03-23T03:06:46;99133.16;;;16.32;52.39
54306;BME280;66145;45.188;5.712;2024-03-23T03:09:12;99116.91;;;16.27;52.32
54306;BME280;66145;45.188;5.712;2024-03-23T03:11:37;99115.81;;;16.28;52.52
54306;BME280;66145;45.188;5.712;2024-03-23T03:14:02;99120.50;;;16.22;52.34
54306;BME280;66145;45.188;5.712;2024-03-23T03:16:28;99121.25;;;16.28;52.31
54306;BME280;66145;45.188;5.712;2024-03-23T03:18:53;99109.59;;;16.22;52.49
54306;BME280;66145;45.188;5.712;2024-03-23T03:21:19;99131.56;;;16.31;52.23
54306;BME280;66145;45.188;5.712;2024-03-23T03:23:44;99120.75;;;16.26;52.64
54306;BME280;66145;45.188;5.712;2024-03-23T03:26:10;99108.81;;;16.22;52.38
54306;BME280;66145;45.188;5.712;2024-03-23T03:28:35;99114.97;;;16.27;52.60
54306;BME280;66145;45.188;5.712;2024-03-23T03:31:00;99094.97;;;16.18;52.25
54306;BME280;66145;45.188;5.712;2024-03-23T03:33:29;99110.13;;;16.24;52.56
54306;BME280;66145;45.188;5.712;2024-03-23T03:35:55;99126.91;;;16.32;52.36
54306;BME280;66145;45.188;5.712;2024-03-23T03:38:21;99120.94;;;16.30;52.31
54306;BME280;66145;45.188;5.712;2024-03-23T03:40:46;99104.38;;;16.26;52.29
54306;BME280;66145;45.188;5.712;2024-03-23T03:43:12;99124.47;;;16.30;52.26
54306;BME280;66145;45.188;5.712;2024-03-23T03:45:37;99089.50;;;16.18;52.42
54306;BME280;66145;45.188;5.712;2024-03-23T03:48:03;99111.72;;;16.25;52.34
54306;BME280;66145;45.188;5.712;2024-03-23T03:50:28;99114.38;;;16.31;52.20
54306;BME280;66145;45.188;5.712;2024-03-23T03:52:54;99103.25;;;16.27;52.13
54306;BME280;66145;45.188;5.712;2024-03-23T03:55:19;99102.44;;;16.26;52.35
54306;BME280;66145;45.188;5.712;2024-03-23T03:57:44;99062.38;;;16.08;52.35
54306;BME280;66145;45.188;5.712;2024-03-23T04:00:10;99089.63;;;16.27;52.25
54306;BME280;66145;45.188;5.712;2024-03-23T04:02:37;99083.72;;;16.20;52.05
54306;BME280;66145;45.188;5.712;2024-03-23T04:05:03;99088.50;;;16.28;52.16
54306;BME280;66145;45.188;5.712;2024-03-23T04:07:28;99072.94;;;16.29;52.22
54306;BME280;66145;45.188;5.712;2024-03-23T04:09:54;99076.44;;;16.29;52.19
54306;BME280;66145;45.188;5.712;2024-03-23T04:12:19;99064.81;;;16.23;52.17
54306;BME280;66145;45.188;5.712;2024-03-23T04:14:45;99059.28;;;16.29;52.01
54306;BME280;66145;45.188;5.712;2024-03-23T04:17:11;99035.19;;;16.17;52.21
54306;BME280;66145;45.188;5.712;2024-03-23T04:19:36;99037.22;;;16.11;52.24
54306;BME280;66145;45.188;5.712;2024-03-23T04:22:01;99030.84;;;16.16;52.10
54306;BME280;66145;45.188;5.712;2024-03-23T04:24:28;99055.25;;;16.26;52.13
54306;BME280;66145;45.188;5.712;2024-03-23T04:26:53;99051.50;;;16.22;52.30
54306;BME280;66145;45.188;5.712;2024-03-23T04:29:19;99045.94;;;16.27;52.38
54306;BME280;66145;45.188;5.712;2024-03-23T04:31:44;99054.13;;;16.27;52.09
54306;BME280;66145;45.188;5.712;2024-03-23T04:34:09;99008.22;;;16.01;52.54
54306;BME280;66145;45.188;5.712;2024-03-23T04:36:35;99041.88;;;16.24;52.19
54306;BME280;66145;45.188;5.712;2024-03-23T04:39:01;99046.75;;;16.27;52.18
54306;BME280;66145;45.188;5.712;2024-03-23T04:41:27;99065.84;;;16.27;52.35
54306;BME280;66145;45.188;5.712;2024-03-23T04:43:52;99077.59;;;16.28;52.09
54306;BME280;66145;45.188;5.712;2024-03-23T04:46:17;99071.31;;;16.27;52.34
54306;BME280;66145;45.188;5.712;2024-03-23T04:48:43;99028.25;;;16.10;52.36
54306;BME280;66145;45.188;5.712;2024-03-23T04:51:10;99052.19;;;16.27;52.42
54306;BME280;66145;45.188;5.712;2024-03-23T04:53:37;99030.22;;;16.05;52.22
54306;BME280;66145;45.188;5.712;2024-03-23T04:56:03;99045.84;;;16.18;52.21
54306;BME280;66145;45.188;5.712;2024-03-23T04:58:29;99059.69;;;16.22;52.35
54306;BME280;66145;45.188;5.712;2024-03-23T05:00:57;99058.78;;;16.26;52.32
54306;BME280;66145;45.188;5.712;2024-03-23T05:03:23;99058.25;;;16.24;52.41
54306;BME280;66145;45.188;5.712;2024-03-23T05:05:49;99075.97;;;16.27;52.19
54306;BME280;66145;45.188;5.712;2024-03-23T05:08:15;99053.19;;;16.18;52.43
54306;BME280;66145;45.188;5.712;2024-03-23T05:10:43;99049.28;;;16.24;52.25
54306;BME280;66145;45.188;5.712;2024-03-23T05:13:09;99064.81;;;16.23;52.43
54306;BME280;66145;45.188;5.712;2024-03-23T05:15:34;99082.53;;;16.26;52.39
54306;BME280;66145;45.188;5.712;2024-03-23T05:18:00;99055.72;;;16.14;52.35
54306;BME280;66145;45.188;5.712;2024-03-23T05:20:25;99086.66;;;16.23;52.40
54306;BME280;66145;45.188;5.712;2024-03-23T05:22:51;99094.34;;;16.21;52.12
54306;BME280;66145;45.188;5.712;2024-03-23T05:25:16;99091.91;;;16.20;52.24
54306;BME280;66145;45.188;5.712;2024-03-23T05:27:42;99101.63;;;16.26;52.44
54306;BME280;66145;45.188;5.712;2024-03-23T05:30:07;99094.72;;;16.15;52.47
54306;BME280;66145;45.188;5.712;2024-03-23T05:32:34;99062.25;;;15.99;52.57
54306;BME280;66145;45.188;5.712;2024-03-23T05:34:59;99078.34;;;16.15;52.51
54306;BME280;66145;45.188;5.712;2024-03-23T05:37:24;99059.75;;;16.03;52.46
54306;BME280;66145;45.188;5.712;2024-03-23T05:39:51;99074.41;;;16.07;52.51
54306;BME280;66145;45.188;5.712;2024-03-23T05:42:17;99099.78;;;16.21;52.38
54306;BME280;66145;45.188;5.712;2024-03-23T05:44:46;99084.19;;;16.08;52.25
54306;BME280;66145;45.188;5.712;2024-03-23T05:47:12;99101.91;;;16.24;52.59
54306;BME280;66145;45.188;5.712;2024-03-23T05:49:42;99096.66;;;16.14;52.58
54306;BME280;66145;45.188;5.712;2024-03-23T05:52:08;99106.06;;;16.22;52.50
54306;BME280;66145;45.188;5.712;2024-03-23T05:54:33;99114.56;;;16.20;52.48
54306;BME280;66145;45.188;5.712;2024-03-23T05:56:59;99117.78;;;16.22;52.46
54306;BME280;66145;45.188;5.712;2024-03-23T05:59:24;99127.31;;;16.25;52.27
54306;BME280;66145;45.188;5.712;2024-03-23T06:01:50;99118.41;;;16.19;52.51
54306;BME280;66145;45.188;5.712;2024-03-23T06:04:15;99128.69;;;16.22;52.64
54306;BME280;66145;45.188;5.712;2024-03-23T06:06:41;99089.16;;;16.06;52.55
54306;BME280;66145;45.188;5.712;2024-03-23T06:09:06;99115.88;;;16.23;52.52
54306;BME280;66145;45.188;5.712;2024-03-23T06:11:31;99108.28;;;16.20;52.70
54306;BME280;66145;45.188;5.712;2024-03-23T06:13:57;99118.59;;;16.23;52.74
54306;BME280;66145;45.188;5.712;2024-03-23T06:16:22;99056.47;;;15.87;52.71
54306;BME280;66145;45.188;5.712;2024-03-23T06:18:52;99123.25;;;16.22;52.67
54306;BME280;66145;45.188;5.712;2024-03-23T06:21:18;99121.94;;;16.20;52.47
54306;BME280;66145;45.188;5.712;2024-03-23T06:23:44;99110.91;;;16.11;52.65
54306;BME280;66145;45.188;5.712;2024-03-23T06:26:17;99109.06;;;16.06;52.81
54306;BME280;66145;45.188;5.712;2024-03-23T06:28:42;99124.84;;;16.09;52.69
54306;BME280;66145;45.188;5.712;2024-03-23T06:31:11;99152.47;;;16.22;52.87
54306;BME280;66145;45.188;5.712;2024-03-23T06:33:37;99149.22;;;16.20;52.94
54306;BME280;66145;45.188;5.712;2024-03-23T06:36:04;99151.63;;;16.21;52.76
54306;BME280;66145;45.188;5.712;2024-03-23T06:38:29;99138.78;;;16.08;52.84
54306;BME280;66145;45.188;5.712;2024-03-23T06:40:55;99165.28;;;16.21;52.42
54306;BME280;66145;45.188;5.712;2024-03-23T06:43:20;99162.34;;;16.18;52.71
54306;BME280;66145;45.188;5.712;2024-03-23T06:45:52;99174.63;;;16.20;53.17
54306;BME280;66145;45.188;5.712;2024-03-23T06:48:18;99171.44;;;16.13;53.02
54306;BME280;66145;45.188;5.712;2024-03-23T06:50:44;99178.53;;;16.14;53.02
54306;BME280;66145;45.188;5.712;2024-03-23T06:53:09;99156.44;;;15.96;53.35
54306;BME280;66145;45.188;5.712;2024-03-23T06:55:35;99204.63;;;16.20;53.39
54306;BME280;66145;45.188;5.712;2024-03-23T06:58:00;99207.13;;;16.17;53.03
54306;BME280;66145;45.188;5.712;2024-03-23T07:00:25;99218.41;;;16.10;53.15
54306;BME280;66145;45.188;5.712;2024-03-23T07:02:51;99245.03;;;16.18;52.76
54306;BME280;66145;45.188;5.712;2024-03-23T07:05:16;99211.88;;;15.92;53.39
54306;BME280;66145;45.188;5.712;2024-03-23T07:07:42;99256.56;;;16.15;53.10
54306;BME280;66145;45.188;5.712;2024-03-23T07:10:07;99266.44;;;16.11;53.32
54306;BME280;66145;45.188;5.712;2024-03-23T07:12:33;99276.53;;;16.10;53.37
54306;BME280;66145;45.188;5.712;2024-03-23T07:14:58;99292.25;;;16.19;53.52
54306;BME280;66145;45.188;5.712;2024-03-23T07:17:23;99307.28;;;16.16;52.93
54306;BME280;66145;45.188;5.712;2024-03-23T07:19:49;99322.25;;;16.19;53.50
54306;BME280;66145;45.188;5.712;2024-03-23T07:22:14;99313.91;;;16.10;53.83
54306;BME280;66145;45.188;5.712;2024-03-23T07:24:40;99324.19;;;16.18;53.47
54306;BME280;66145;45.188;5.712;2024-03-23T07:27:05;99331.28;;;16.19;53.39
54306;BME280;66145;45.188;5.712;2024-03-23T07:29:38;99313.78;;;16.01;53.27
54306;BME280;66145;45.188;5.712;2024-03-23T07:32:03;99319.53;;;16.00;53.40
54306;BME280;66145;45.188;5.712;2024-03-23T07:34:29;99348.44;;;16.20;53.59
54306;BME280;66145;45.188;5.712;2024-03-23T07:36:54;99328.97;;;16.07;53.43
54306;BME280;66145;45.188;5.712;2024-03-23T07:39:19;99331.41;;;16.09;53.39
54306;BME280;66145;45.188;5.712;2024-03-23T07:41:45;99355.31;;;16.17;53.49
54306;BME280;66145;45.188;5.712;2024-03-23T07:44:10;99341.00;;;16.06;53.30
54306;BME280;66145;45.188;5.712;2024-03-23T07:46:36;99361.56;;;16.18;53.56
54306;BME280;66145;45.188;5.712;2024-03-23T07:49:01;99355.59;;;16.16;53.40
54306;BME280;66145;45.188;5.712;2024-03-23T07:51:26;99358.16;;;16.07;53.38
54306;BME280;66145;45.188;5.712;2024-03-23T07:53:52;99353.53;;;16.07;53.24
54306;BME280;66145;45.188;5.712;2024-03-23T07:56:18;99362.66;;;16.17;53.60
54306;BME280;66145;45.188;5.712;2024-03-23T07:58:45;99343.88;;;15.96;53.33
54306;BME280;66145;45.188;5.712;2024-03-23T08:01:15;99377.72;;;16.14;53.32
54306;BME280;66145;45.188;5.712;2024-03-23T08:03:42;99388.84;;;16.18;53.25
54306;BME280;66145;45.188;5.712;2024-03-23T08:06:13;99364.50;;;16.02;53.45
54306;BME280;66145;45.188;5.712;2024-03-23T08:08:40;99382.66;;;16.12;53.15
54306;BME280;66145;45.188;5.712;2024-03-23T08:11:05;99384.81;;;16.15;53.43
54306;BME280;66145;45.188;5.712;2024-03-23T08:13:31;99369.91;;;16.07;53.60
54306;BME280;66145;45.188;5.712;2024-03-23T08:15:57;99384.06;;;16.09;53.32
54306;BME280;66145;45.188;5.712;2024-03-23T08:18:23;99388.69;;;16.09;53.10
54306;BME280;66145;45.188;5.712;2024-03-23T08:20:58;99398.00;;;16.08;53.53
54306;BME280;66145;45.188;5.712;2024-03-23T08:23:25;99379.91;;;15.93;53.28
54306;BME280;66145;45.188;5.712;2024-03-23T08:25:51;99414.31;;;16.13;53.66
54306;BME280;66145;45.188;5.712;2024-03-23T08:28:16;99392.81;;;15.87;53.65
54306;BME280;66145;45.188;5.712;2024-03-23T08:30:42;99422.28;;;16.09;53.54
54306;BME280;66145;45.188;5.712;2024-03-23T08:33:07;99448.91;;;16.18;53.52
54306;BME280;66145;45.188;5.712;2024-03-23T08:35:33;99439.44;;;16.10;53.54
54306;BME280;66145;45.188;5.712;2024-03-23T08:37:59;99454.34;;;16.18;53.58
54306;BME280;66145;45.188;5.712;2024-03-23T08:40:25;99449.25;;;16.11;53.61
54306;BME280;66145;45.188;5.712;2024-03-23T08:42:50;99435.75;;;16.01;53.48
54306;BME280;66145;45.188;5.712;2024-03-23T08:45:15;99471.84;;;16.17;53.85
54306;BME280;66145;45.188;5.712;2024-03-23T08:47:41;99474.56;;;16.17;53.46
54306;BME280;66145;45.188;5.712;2024-03-23T08:50:06;99454.00;;;16.00;53.45
54306;BME280;66145;45.188;5.712;2024-03-23T08:52:33;99472.75;;;16.07;52.84
54306;BME280;66145;45.188;5.712;2024-03-23T08:54:58;99497.81;;;16.14;53.11
54306;BME280;66145;45.188;5.712;2024-03-23T08:57:23;99484.22;;;16.09;54.05
54306;BME280;66145;45.188;5.712;2024-03-23T08:59:49;99489.44;;;16.05;53.81
54306;BME280;66145;45.188;5.712;2024-03-23T09:02:15;99501.69;;;16.08;53.34
54306;BME280;66145;45.188;5.712;2024-03-23T09:04:40;99504.34;;;16.13;53.48
54306;BME280;66145;45.188;5.712;2024-03-23T09:07:05;99486.47;;;16.02;53.32
54306;BME280;66145;45.188;5.712;2024-03-23T09:09:31;99522.06;;;16.16;53.67
54306;BME280;66145;45.188;5.712;2024-03-23T09:11:56;99511.22;;;16.10;53.68
54306;BME280;66145;45.188;5.712;2024-03-23T09:14:22;99517.44;;;16.16;53.45
54306;BME280;66145;45.188;5.712;2024-03-23T09:16:49;99502.31;;;16.00;53.52
54306;BME280;66145;45.188;5.712;2024-03-23T09:19:15;99533.53;;;16.12;53.74
54306;BME280;66145;45.188;5.712;2024-03-23T09:21:40;99545.81;;;16.15;53.21
54306;BME280;66145;45.188;5.712;2024-03-23T09:24:06;99552.16;;;16.10;53.55
54306;BME280;66145;45.188;5.712;2024-03-23T09:26:31;99541.22;;;16.10;53.69
54306;BME280;66145;45.188;5.712;2024-03-23T09:28:56;99548.31;;;16.11;53.82
54306;BME280;66145;45.188;5.712;2024-03-23T09:31:22;99540.75;;;16.03;53.61
54306;BME280;66145;45.188;5.712;2024-03-23T09:33:47;99554.88;;;16.10;53.43
54306;BME280;66145;45.188;5.712;2024-03-23T09:36:12;99554.34;;;16.08;53.26
54306;BME280;66145;45.188;5.712;2024-03-23T09:38:38;99557.84;;;16.14;53.79
54306;BME280;66145;45.188;5.712;2024-03-23T09:41:07;99556.25;;;16.08;53.57
54306;BME280;66145;45.188;5.712;2024-03-23T09:43:34;99567.94;;;16.14;53.49
54306;BME280;66145;45.188;5.712;2024-03-23T09:45:59;99573.69;;;16.12;54.02
54306;BME280;66145;45.188;5.712;2024-03-23T09:48:25;99558.75;;;16.04;53.62
54306;BME280;66145;45.188;5.712;2024-03-23T09:50:51;99561.44;;;16.09;53.67
54306;BME280;66145;45.188;5.712;2024-03-23T09:53:16;99520.72;;;15.89;53.55
54306;BME280;66145;45.188;5.712;2024-03-23T09:55:43;99572.06;;;16.11;53.24
54306;BME280;66145;45.188;5.712;2024-03-23T09:58:12;99562.88;;;16.02;53.13
54306;BME280;66145;45.188;5.712;2024-03-23T10:00:38;99587.84;;;16.14;53.57
54306;BME280;66145;45.188;5.712;2024-03-23T10:03:04;99580.25;;;16.11;53.24
54306;BME280;66145;45.188;5.712;2024-03-23T10:05:32;99569.38;;;16.06;53.29
54306;BME280;66145;45.188;5.712;2024-03-23T10:08:00;99574.56;;;16.07;53.55
54306;BME280;66145;45.188;5.712;2024-03-23T10:10:42;99547.66;;;15.95;53.26
54306;BME280;66145;45.188;5.712;2024-03-23T10:13:08;99565.53;;;16.07;53.11
54306;BME280;66145;45.188;5.712;2024-03-23T10:15:36;99572.34;;;16.09;52.98
54306;BME280;66145;45.188;5.712;2024-03-23T10:18:20;99550.25;;;16.06;52.90
54306;BME280;66145;45.188;5.712;2024-03-23T10:21:05;99539.69;;;15.99;52.64
54306;BME280;66145;45.188;5.712;2024-03-23T10:23:35;99562.25;;;16.10;53.00
54306;BME280;66145;45.188;5.712;2024-03-23T10:28:58;99557.34;;;16.07;52.95
54306;BME280;66145;45.188;5.712;2024-03-23T10:31:29;99553.81;;;16.06;53.12
54306;BME280;66145;45.188;5.712;2024-03-23T10:33:55;99568.78;;;16.09;53.09
54306;BME280;66145;45.188;5.712;2024-03-23T10:36:22;99548.38;;;16.06;52.85
54306;BME280;66145;45.188;5.712;2024-03-23T10:38:50;99560.63;;;16.09;52.72
54306;BME280;66145;45.188;5.712;2024-03-23T10:41:16;99565.28;;;16.08;53.08
54306;BME280;66145;45.188;5.712;2024-03-23T10:43:42;99569.66;;;16.04;52.84
54306;BME280;66145;45.188;5.712;2024-03-23T10:46:09;99538.72;;;15.85;53.02
54306;BME280;66145;45.188;5.712;2024-03-23T10:48:35;99565.28;;;16.08;52.86
54306;BME280;66145;45.188;5.712;2024-03-23T10:51:01;99532.47;;;15.84;52.74
54306;BME280;66145;45.188;5.712;2024-03-23T10:53:27;99550.00;;;16.07;52.74
54306;BME280;66145;45.188;5.712;2024-03-23T10:55:55;99521.81;;;15.82;52.77
54306;BME280;66145;45.188;5.712;2024-03-23T10:58:41;99569.09;;;16.07;52.70
54306;BME280;66145;45.188;5.712;2024-03-23T11:01:11;99549.25;;;16.02;52.91
54306;BME280;66145;45.188;5.712;2024-03-23T11:03:38;99574.03;;;16.05;52.49
54306;BME280;66145;45.188;5.712;2024-03-23T11:06:05;99557.44;;;16.02;52.66
54306;BME280;66145;45.188;5.712;2024-03-23T11:08:40;99560.41;;;16.00;52.81
54306;BME280;66145;45.188;5.712;2024-03-23T11:11:14;99550.69;;;15.94;52.58
54306;BME280;66145;45.188;5.712;2024-03-23T11:13:40;99564.22;;;16.04;52.63
54306;BME280;66145;45.188;5.712;2024-03-23T11:16:13;99555.72;;;16.06;52.81
54306;BME280;66145;45.188;5.712;2024-03-23T11:18:39;99510.09;;;15.87;52.66
54306;BME280;66145;45.188;5.712;2024-03-23T11:21:06;99539.66;;;16.04;52.75
54306;BME280;66145;45.188;5.712;2024-03-23T11:23:32;99526.88;;;16.00;52.74
54306;BME280;66145;45.188;5.712;2024-03-23T11:25:57;99521.13;;;16.01;52.88
54306;BME280;66145;45.188;5.712;2024-03-23T11:28:23;99517.41;;;15.92;52.81
54306;BME280;66145;45.188;5.712;2024-03-23T11:30:48;99483.41;;;15.79;52.92
54306;BME280;66145;45.188;5.712;2024-03-23T11:33:14;99509.50;;;15.90;52.78
54306;BME280;66145;45.188;5.712;2024-03-23T11:35:40;99523.06;;;16.01;52.74
54306;BME280;66145;45.188;5.712;2024-03-23T11:38:13;99505.84;;;16.00;52.82
54306;BME280;66145;45.188;5.712;2024-03-23T11:40:43;99492.28;;;15.95;52.46
54306;BME280;66145;45.188;5.712;2024-03-23T11:43:12;99468.09;;;15.88;52.86
54306;BME280;66145;45.188;5.712;2024-03-23T11:45:48;99493.03;;;16.01;52.84
54306;BME280;66145;45.188;5.712;2024-03-23T11:48:19;99484.28;;;16.04;52.22
54306;BME280;66145;45.188;5.712;2024-03-23T11:50:46;99467.75;;;15.95;52.93
54306;BME280;66145;45.188;5.712;2024-03-23T11:53:15;99481.56;;;16.04;52.78
54306;BME280;66145;45.188;5.712;2024-03-23T11:58:16;99479.94;;;16.03;52.71
54306;BME280;66145;45.188;5.712;2024-03-23T12:00:49;99471.47;;;15.99;52.68
54306;BME280;66145;45.188;5.712;2024-03-23T12:03:16;99465.59;;;15.92;52.82
54306;BME280;66145;45.188;5.712;2024-03-23T12:05:50;99478.81;;;16.04;52.83
54306;BME280;66145;45.188;5.712;2024-03-23T12:13:33;99439.97;;;15.88;52.46
54306;BME280;66145;45.188;5.712;2024-03-23T12:16:18;99433.19;;;15.85;52.59
54306;BME280;66145;45.188;5.712;2024-03-23T12:18:48;99431.44;;;15.94;52.79
54306;BME280;66145;45.188;5.712;2024-03-23T12:21:14;99431.03;;;16.06;52.92
54306;BME280;66145;45.188;5.712;2024-03-23T12:23:40;99438.56;;;16.15;52.56
54306;BME280;66145;45.188;5.712;2024-03-23T12:26:06;99404.63;;;16.02;52.23
54306;BME280;66145;45.188;5.712;2024-03-23T12:28:32;99416.63;;;16.25;51.73
54306;BME280;66145;45.188;5.712;2024-03-23T12:30:58;99379.56;;;16.19;51.40
54306;BME280;66145;45.188;5.712;2024-03-23T12:33:23;99412.94;;;16.54;51.34
54306;BME280;66145;45.188;5.712;2024-03-23T12:35:50;99415.88;;;16.57;51.31
54306;BME280;66145;45.188;5.712;2024-03-23T12:38:16;99418.34;;;16.59;51.16
54306;BME280;66145;45.188;5.712;2024-03-23T12:40:41;99420.16;;;16.64;51.16
54306;BME280;66145;45.188;5.712;2024-03-23T12:43:07;99401.06;;;16.64;50.76
54306;BME280;66145;45.188;5.712;2024-03-23T12:45:35;99415.50;;;16.64;51.23
54306;BME280;66145;45.188;5.712;2024-03-23T12:48:00;99405.16;;;16.61;51.01
54306;BME280;66145;45.188;5.712;2024-03-23T12:50:25;99397.22;;;16.65;51.03
54306;BME280;66145;45.188;5.712;2024-03-23T12:52:51;99406.50;;;16.64;50.90
54306;BME280;66145;45.188;5.712;2024-03-23T12:55:16;99406.50;;;16.64;51.09
54306;BME280;66145;45.188;5.712;2024-03-23T12:57:42;99405.09;;;16.66;50.78
54306;BME280;66145;45.188;5.712;2024-03-23T13:00:07;99383.41;;;16.56;50.90
54306;BME280;66145;45.188;5.712;2024-03-23T13:02:36;99408.34;;;16.68;51.00
54306;BME280;66145;45.188;5.712;2024-03-23T13:05:01;99414.63;;;16.69;50.93
54306;BME280;66145;45.188;5.712;2024-03-23T13:07:27;99396.38;;;16.64;51.20
54306;BME280;66145;45.188;5.712;2024-03-23T13:09:53;99364.44;;;16.46;50.79
54306;BME280;66145;45.188;5.712;2024-03-23T13:12:19;99390.03;;;16.69;50.99
54306;BME280;66145;45.188;5.712;2024-03-23T13:14:45;99387.91;;;16.66;50.91
54306;BME280;66145;45.188;5.712;2024-03-23T13:17:11;99384.75;;;16.58;50.93
54306;BME280;66145;45.188;5.712;2024-03-23T13:19:36;99365.63;;;16.58;50.97
54306;BME280;66145;45.188;5.712;2024-03-23T13:22:01;99377.50;;;16.68;50.93
54306;BME280;66145;45.188;5.712;2024-03-23T13:24:28;99375.06;;;16.66;51.05
54306;BME280;66145;45.188;5.712;2024-03-23T13:26:55;99343.63;;;16.50;50.93
54306;BME280;66145;45.188;5.712;2024-03-23T13:29:21;99364.44;;;16.65;51.20
54306;BME280;66145;45.188;5.712;2024-03-23T13:31:48;99372.31;;;16.66;50.98
54306;BME280;66145;45.188;5.712;2024-03-23T13:34:13;99364.13;;;16.66;50.90
54306;BME280;66145;45.188;5.712;2024-03-23T13:36:42;99353.06;;;16.57;50.96
54306;BME280;66145;45.188;5.712;2024-03-23T13:39:08;99357.56;;;16.67;50.95
54306;BME280;66145;45.188;5.712;2024-03-23T13:41:40;99357.34;;;16.64;51.08
54306;BME280;66145;45.188;5.712;2024-03-23T13:44:07;99326.34;;;16.54;51.03
54306;BME280;66145;45.188;5.712;2024-03-23T13:46:33;99316.25;;;16.55;51.00
54306;BME280;66145;45.188;5.712;2024-03-23T13:48:59;99320.22;;;16.63;51.18
54306;BME280;66145;45.188;5.712;2024-03-23T13:51:25;99305.34;;;16.55;50.90
54306;BME280;66145;45.188;5.712;2024-03-23T13:53:55;99328.84;;;16.70;50.84
54306;BME280;66145;45.188;5.712;2024-03-23T13:56:26;99332.91;;;16.72;51.04
54306;BME280;66145;45.188;5.712;2024-03-23T13:58:51;99294.56;;;16.45;50.73